sensor_id;sensor_type;location;lat;lon;timestamp;P1;durP1;ratioP1;P2;durP2;ratioP2
82244;SDS011;71849;50.096;14.458;2023-10-08T00:02:03;6.55;;;2.70;;
82244;SDS011;71849;50.096;14.458;2023-10-08T00:04:31;7.20;;;2.80;;
82244;SDS011;71849;50.096;14.458;2023-10-08T00:07:02;7.25;;;2.58;;
82244;SDS011;71849;50.096;14.458;2023-10-08T00:09:34;7.03;;;2.28;;
82244;SDS011;71849;50.096;14.458;2023-10-08T00:12:06;7.13;;;2.10;;
82244;SDS011;71849;50.096;14.458;2023-10-08T00:14:33;8.25;;;2.92;;
82244;SDS011;71849;50.096;14.458;2023-10-08T00:17:08;6.88;;;2.28;;
82244;SDS011;71849;50.096;14.458;2023-10-08T00:19:35;10.05;;;3.15;;
82244;SDS011;71849;50.096;14.458;2023-10-08T00:22:03;8.68;;;2.70;;
82244;SDS011;71849;50.096;14.458;2023-10-08T00:24:36;7.80;;;2.65;;
82244;SDS011;71849;50.096;14.458;2023-10-08T00:27:06;8.35;;;2.50;;
82244;SDS011;71849;50.096;14.458;2023-10-08T00:29:32;8.13;;;2.38;;
82244;SDS011;71849;50.096;14.458;2023-10-08T00:31:57;9.98;;;2.67;;
82244;SDS011;71849;50.096;14.458;2023-10-08T00:34:23;7.82;;;2.58;;
82244;SDS011;71849;50.096;14.458;2023-10-08T00:36:50;8.02;;;2.30;;
82244;SDS011;71849;50.096;14.458;2023-10-08T00:39:16;6.65;;;2.60;;
82244;SDS011;71849;50.096;14.458;2023-10-08T00:41:48;7.70;;;2.67;;
82244;SDS011;71849;50.096;14.458;2023-10-08T00:44:23;7.53;;;2.42;;
82244;SDS011;71849;50.096;14.458;2023-10-08T00:46:55;7.63;;;2.72;;
82244;SDS011;71849;50.096;14.458;2023-10-08T00:49:22;9.98;;;3.40;;
82244;SDS011;71849;50.096;14.458;2023-10-08T00:51:54;7.75;;;2.38;;
82244;SDS011;71849;50.096;14.458;2023-10-08T00:54:30;10.40;;;2.78;;
82244;SDS011;71849;50.096;14.458;2023-10-08T00:57:05;6.47;;;2.53;;
82244;SDS011;71849;50.096;14.458;2023-10-08T00:59:34;8.93;;;2.70;;
82244;SDS011;71849;50.096;14.458;2023-10-08T01:02:09;6.47;;;2.40;;
82244;SDS011;71849;50.096;14.458;2023-10-08T01:04:40;7.43;;;2.85;;
82244;SDS011;71849;50.096;14.458;2023-10-08T01:07:09;7.65;;;2.50;;
82244;SDS011;71849;50.096;14.458;2023-10-08T01:09:41;6.97;;;2.60;;
82244;SDS011;71849;50.096;14.458;2023-10-08T01:14:40;8.02;;;2.50;;
82244;SDS011;71849;50.096;14.458;2023-10-08T01:17:11;8.10;;;2.30;;
82244;SDS011;71849;50.096;14.458;2023-10-08T01:19:44;7.07;;;2.40;;
82244;SDS011;71849;50.096;14.458;2023-10-08T01:22:12;8.00;;;2.53;;
82244;SDS011;71849;50.096;14.458;2023-10-08T01:24:43;9.05;;;2.47;;
82244;SDS011;71849;50.096;14.458;2023-10-08T01:27:09;10.77;;;2.42;;
82244;SDS011;71849;50.096;14.458;2023-10-08T01:29:38;8.75;;;2.53;;
82244;SDS011;71849;50.096;14.458;2023-10-08T01:32:04;7.90;;;2.33;;
82244;SDS011;71849;50.096;14.458;2023-10-08T01:34:36;8.90;;;2.50;;
82244;SDS011;71849;50.096;14.458;2023-10-08T01:37:02;7.97;;;2.40;;
82244;SDS011;71849;50.096;14.458;2023-10-08T01:39:35;7.95;;;2.50;;
82244;SDS011;71849;50.096;14.458;2023-10-08T01:42:01;9.73;;;2.60;;
82244;SDS011;71849;50.096;14.458;2023-10-08T01:44:27;8.57;;;2.42;;
82244;SDS011;71849;50.096;14.458;2023-10-08T01:46:54;7.03;;;2.53;;
82244;SDS011;71849;50.096;14.458;2023-10-08T01:49:22;7.63;;;2.65;;
82244;SDS011;71849;50.096;14.458;2023-10-08T01:51:51;5.97;;;2.20;;
82244;SDS011;71849;50.096;14.458;2023-10-08T01:54:19;7.30;;;2.63;;
82244;SDS011;71849;50.096;14.458;2023-10-08T01:56:46;8.15;;;2.50;;
82244;SDS011;71849;50.096;14.458;2023-10-08T01:59:12;7.68;;;2.55;;
82244;SDS011;71849;50.096;14.458;2023-10-08T02:01:39;10.00;;;2.80;;
82244;SDS011;71849;50.096;14.458;2023-10-08T02:04:06;8.32;;;2.63;;
82244;SDS011;71849;50.096;14.458;2023-10-08T02:06:36;8.30;;;2.90;;
82244;SDS011;71849;50.096;14.458;2023-10-08T02:09:02;7.25;;;2.65;;
82244;SDS011;71849;50.096;14.458;2023-10-08T02:11:40;7.93;;;2.55;;
82244;SDS011;71849;50.096;14.458;2023-10-08T02:14:15;7.47;;;2.58;;
82244;SDS011;71849;50.096;14.458;2023-10-08T02:16:42;8.63;;;2.80;;
82244;SDS011;71849;50.096;14.458;2023-10-08T02:19:08;7.53;;;2.55;;
82244;SDS011;71849;50.096;14.458;2023-10-08T02:21:35;8.15;;;2.70;;
82244;SDS011;71849;50.096;14.458;2023-10-08T02:24:07;6.82;;;2.60;;
82244;SDS011;71849;50.096;14.458;2023-10-08T02:26:34;7.13;;;3.05;;
82244;SDS011;71849;50.096;14.458;2023-10-08T02:29:03;6.80;;;2.78;;
82244;SDS011;71849;50.096;14.458;2023-10-08T02:31:36;7.47;;;2.40;;
82244;SDS011;71849;50.096;14.458;2023-10-08T02:36:32;9.07;;;2.85;;
82244;SDS011;71849;50.096;14.458;2023-10-08T02:39:02;6.60;;;2.40;;
82244;SDS011;71849;50.096;14.458;2023-10-08T02:41:39;9.15;;;2.40;;
82244;SDS011;71849;50.096;14.458;2023-10-08T02:44:07;7.40;;;2.55;;
82244;SDS011;71849;50.096;14.458;2023-10-08T02:46:37;10.23;;;3.05;;
82244;SDS011;71849;50.096;14.458;2023-10-08T02:49:05;6.60;;;2.33;;
82244;SDS011;71849;50.096;14.458;2023-10-08T02:54:00;7.37;;;2.40;;
82244;SDS011;71849;50.096;14.458;2023-10-08T02:56:30;7.90;;;3.05;;
82244;SDS011;71849;50.096;14.458;2023-10-08T02:58:57;8.07;;;2.65;;
82244;SDS011;71849;50.096;14.458;2023-10-08T03:01:23;7.22;;;2.22;;
82244;SDS011;71849;50.096;14.458;2023-10-08T03:03:50;8.50;;;2.72;;
82244;SDS011;71849;50.096;14.458;2023-10-08T03:06:19;9.45;;;2.80;;
82244;SDS011;71849;50.096;14.458;2023-10-08T03:08:44;6.68;;;2.50;;
82244;SDS011;71849;50.096;14.458;2023-10-08T03:11:12;7.38;;;2.55;;
82244;SDS011;71849;50.096;14.458;2023-10-08T03:13:44;9.23;;;2.78;;
82244;SDS011;71849;50.096;14.458;2023-10-08T03:16:17;6.75;;;2.20;;
82244;SDS011;71849;50.096;14.458;2023-10-08T03:18:46;12.05;;;3.22;;
82244;SDS011;71849;50.096;14.458;2023-10-08T03:21:15;9.52;;;3.17;;
82244;SDS011;71849;50.096;14.458;2023-10-08T03:24:01;7.88;;;2.70;;
82244;SDS011;71849;50.096;14.458;2023-10-08T03:26:31;9.07;;;2.67;;
82244;SDS011;71849;50.096;14.458;2023-10-08T03:29:03;7.53;;;2.42;;
82244;SDS011;71849;50.096;14.458;2023-10-08T03:31:42;9.88;;;2.80;;
82244;SDS011;71849;50.096;14.458;2023-10-08T03:34:14;9.35;;;2.45;;
82244;SDS011;71849;50.096;14.458;2023-10-08T03:36:44;7.82;;;2.60;;
82244;SDS011;71849;50.096;14.458;2023-10-08T03:39:12;8.43;;;3.10;;
82244;SDS011;71849;50.096;14.458;2023-10-08T03:41:42;8.95;;;3.03;;
82244;SDS011;71849;50.096;14.458;2023-10-08T03:44:16;9.52;;;2.40;;
82244;SDS011;71849;50.096;14.458;2023-10-08T03:46:42;8.15;;;2.63;;
82244;SDS011;71849;50.096;14.458;2023-10-08T03:49:11;9.43;;;2.50;;
82244;SDS011;71849;50.096;14.458;2023-10-08T03:51:50;8.07;;;2.47;;
82244;SDS011;71849;50.096;14.458;2023-10-08T03:54:17;9.88;;;2.95;;
82244;SDS011;71849;50.096;14.458;2023-10-08T03:56:55;8.82;;;2.58;;
82244;SDS011;71849;50.096;14.458;2023-10-08T03:59:21;8.23;;;2.78;;
82244;SDS011;71849;50.096;14.458;2023-10-08T04:01:56;8.88;;;3.22;;
82244;SDS011;71849;50.096;14.458;2023-10-08T04:04:38;7.38;;;2.83;;
82244;SDS011;71849;50.096;14.458;2023-10-08T04:07:20;8.88;;;2.88;;
82244;SDS011;71849;50.096;14.458;2023-10-08T04:10:09;8.30;;;2.58;;
82244;SDS011;71849;50.096;14.458;2023-10-08T04:12:35;9.15;;;2.45;;
82244;SDS011;71849;50.096;14.458;2023-10-08T04:15:03;9.68;;;2.67;;
82244;SDS011;71849;50.096;14.458;2023-10-08T04:17:36;7.78;;;2.92;;
82244;SDS011;71849;50.096;14.458;2023-10-08T04:20:09;9.57;;;3.15;;
82244;SDS011;71849;50.096;14.458;2023-10-08T04:22:55;9.02;;;2.42;;
82244;SDS011;71849;50.096;14.458;2023-10-08T04:25:24;8.05;;;2.55;;
82244;SDS011;71849;50.096;14.458;2023-10-08T04:27:56;8.13;;;2.60;;
82244;SDS011;71849;50.096;14.458;2023-10-08T04:30:25;8.98;;;3.08;;
82244;SDS011;71849;50.096;14.458;2023-10-08T04:33:01;9.32;;;2.53;;
82244;SDS011;71849;50.096;14.458;2023-10-08T04:35:42;7.43;;;3.03;;
82244;SDS011;71849;50.096;14.458;2023-10-08T04:40:48;8.27;;;2.83;;
82244;SDS011;71849;50.096;14.458;2023-10-08T04:43:23;10.30;;;2.50;;
82244;SDS011;71849;50.096;14.458;2023-10-08T04:45:56;7.32;;;2.83;;
82244;SDS011;71849;50.096;14.458;2023-10-08T04:48:30;9.10;;;2.90;;
82244;SDS011;71849;50.096;14.458;2023-10-08T04:50:57;9.70;;;4.07;;
82244;SDS011;71849;50.096;14.458;2023-10-08T04:53:29;8.75;;;1.80;;
82244;SDS011;71849;50.096;14.458;2023-10-08T04:56:06;5.85;;;0.68;;
82244;SDS011;71849;50.096;14.458;2023-10-08T04:58:42;0.20;;;0.20;;
82244;SDS011;71849;50.096;14.458;2023-10-08T05:01:16;0.10;;;0.10;;
82244;SDS011;71849;50.096;14.458;2023-10-08T05:03:49;0.08;;;0.08;;
82244;SDS011;71849;50.096;14.458;2023-10-08T05:06:31;0.20;;;0.03;;
82244;SDS011;71849;50.096;14.458;2023-10-08T05:09:07;0.00;;;0.00;;
82244;SDS011;71849;50.096;14.458;2023-10-08T05:11:58;0.35;;;0.10;;
82244;SDS011;71849;50.096;14.458;2023-10-08T05:14:56;1.05;;;0.10;;
82244;SDS011;71849;50.096;14.458;2023-10-08T05:17:43;0.65;;;0.20;;
82244;SDS011;71849;50.096;14.458;2023-10-08T05:20:19;0.55;;;0.20;;
82244;SDS011;71849;50.096;14.458;2023-10-08T05:23:10;0.30;;;0.20;;
82244;SDS011;71849;50.096;14.458;2023-10-08T05:25:49;0.10;;;0.10;;
82244;SDS011;71849;50.096;14.458;2023-10-08T05:28:30;0.40;;;0.10;;
82244;SDS011;71849;50.096;14.458;2023-10-08T05:31:06;0.70;;;0.20;;
82244;SDS011;71849;50.096;14.458;2023-10-08T05:33:38;0.25;;;0.10;;
82244;SDS011;71849;50.096;14.458;2023-10-08T05:36:22;0.43;;;0.17;;
82244;SDS011;71849;50.096;14.458;2023-10-08T05:39:01;0.17;;;0.17;;
82244;SDS011;71849;50.096;14.458;2023-10-08T05:41:44;0.45;;;0.20;;
82244;SDS011;71849;50.096;14.458;2023-10-08T05:44:28;0.13;;;0.13;;
82244;SDS011;71849;50.096;14.458;2023-10-08T05:47:04;0.47;;;0.20;;
82244;SDS011;71849;50.096;14.458;2023-10-08T05:49:52;0.25;;;0.25;;
82244;SDS011;71849;50.096;14.458;2023-10-08T05:52:56;0.20;;;0.20;;
82244;SDS011;71849;50.096;14.458;2023-10-08T05:55:21;1.02;;;0.22;;
82244;SDS011;71849;50.096;14.458;2023-10-08T05:57:54;0.60;;;0.20;;
82244;SDS011;71849;50.096;14.458;2023-10-08T06:00:43;0.28;;;0.10;;
82244;SDS011;71849;50.096;14.458;2023-10-08T06:03:19;0.50;;;0.20;;
82244;SDS011;71849;50.096;14.458;2023-10-08T06:06:02;1.33;;;0.28;;
82244;SDS011;71849;50.096;14.458;2023-10-08T06:08:40;0.20;;;0.10;;
82244;SDS011;71849;50.096;14.458;2023-10-08T06:11:24;0.55;;;0.30;;
82244;SDS011;71849;50.096;14.458;2023-10-08T06:14:09;0.88;;;0.50;;
82244;SDS011;71849;50.096;14.458;2023-10-08T06:16:56;0.65;;;0.20;;
82244;SDS011;71849;50.096;14.458;2023-10-08T06:19:39;1.15;;;0.50;;
82244;SDS011;71849;50.096;14.458;2023-10-08T06:22:04;1.20;;;0.38;;
82244;SDS011;71849;50.096;14.458;2023-10-08T06:24:30;1.05;;;0.40;;
82244;SDS011;71849;50.096;14.458;2023-10-08T06:26:58;1.45;;;0.52;;
82244;SDS011;71849;50.096;14.458;2023-10-08T06:29:29;0.47;;;0.43;;
82244;SDS011;71849;50.096;14.458;2023-10-08T06:31:56;0.82;;;0.40;;
82244;SDS011;71849;50.096;14.458;2023-10-08T06:34:26;1.40;;;0.63;;
82244;SDS011;71849;50.096;14.458;2023-10-08T06:36:53;1.20;;;0.60;;
82244;SDS011;71849;50.096;14.458;2023-10-08T06:39:22;0.98;;;0.50;;
82244;SDS011;71849;50.096;14.458;2023-10-08T06:42:01;7.38;;;3.25;;
82244;SDS011;71849;50.096;14.458;2023-10-08T06:44:28;1.27;;;0.57;;
82244;SDS011;71849;50.096;14.458;2023-10-08T06:46:54;1.50;;;0.50;;
82244;SDS011;71849;50.096;14.458;2023-10-08T06:49:21;1.58;;;0.50;;
82244;SDS011;71849;50.096;14.458;2023-10-08T06:51:49;2.00;;;0.60;;
82244;SDS011;71849;50.096;14.458;2023-10-08T06:54:15;0.82;;;0.43;;
82244;SDS011;71849;50.096;14.458;2023-10-08T06:56:42;2.15;;;0.63;;
82244;SDS011;71849;50.096;14.458;2023-10-08T06:59:14;0.80;;;0.40;;
82244;SDS011;71849;50.096;14.458;2023-10-08T07:01:42;1.98;;;0.50;;
82244;SDS011;71849;50.096;14.458;2023-10-08T07:04:11;0.52;;;0.32;;
82244;SDS011;71849;50.096;14.458;2023-10-08T07:06:43;1.35;;;0.40;;
82244;SDS011;71849;50.096;14.458;2023-10-08T07:09:10;0.95;;;0.30;;
82244;SDS011;71849;50.096;14.458;2023-10-08T07:11:54;1.35;;;0.50;;
82244;SDS011;71849;50.096;14.458;2023-10-08T07:14:22;2.53;;;0.70;;
82244;SDS011;71849;50.096;14.458;2023-10-08T07:19:24;0.30;;;0.30;;
82244;SDS011;71849;50.096;14.458;2023-10-08T07:22:02;0.13;;;0.13;;
82244;SDS011;71849;50.096;14.458;2023-10-08T07:24:54;1.13;;;0.50;;
82244;SDS011;71849;50.096;14.458;2023-10-08T07:27:22;1.40;;;0.40;;
82244;SDS011;71849;50.096;14.458;2023-10-08T07:29:54;0.98;;;0.40;;
82244;SDS011;71849;50.096;14.458;2023-10-08T07:32:20;0.88;;;0.50;;
82244;SDS011;71849;50.096;14.458;2023-10-08T07:34:46;0.40;;;0.35;;
82244;SDS011;71849;50.096;14.458;2023-10-08T07:39:53;1.53;;;0.63;;
82244;SDS011;71849;50.096;14.458;2023-10-08T07:42:20;2.92;;;0.60;;
82244;SDS011;71849;50.096;14.458;2023-10-08T07:44:49;2.08;;;0.40;;
82244;SDS011;71849;50.096;14.458;2023-10-08T07:47:19;1.27;;;0.60;;
82244;SDS011;71849;50.096;14.458;2023-10-08T07:49:46;0.75;;;0.40;;
82244;SDS011;71849;50.096;14.458;2023-10-08T07:52:12;1.77;;;0.52;;
82244;SDS011;71849;50.096;14.458;2023-10-08T07:54:40;2.33;;;0.80;;
82244;SDS011;71849;50.096;14.458;2023-10-08T07:57:06;0.88;;;0.55;;
82244;SDS011;71849;50.096;14.458;2023-10-08T07:59:46;1.33;;;0.40;;
82244;SDS011;71849;50.096;14.458;2023-10-08T08:02:38;0.77;;;0.55;;
82244;SDS011;71849;50.096;14.458;2023-10-08T08:08:02;0.95;;;0.63;;
82244;SDS011;71849;50.096;14.458;2023-10-08T08:10:31;2.38;;;0.73;;
82244;SDS011;71849;50.096;14.458;2023-10-08T08:13:02;3.47;;;1.00;;
82244;SDS011;71849;50.096;14.458;2023-10-08T08:15:31;3.47;;;1.00;;
82244;SDS011;71849;50.096;14.458;2023-10-08T08:17:58;2.50;;;1.20;;
82244;SDS011;71849;50.096;14.458;2023-10-08T08:20:25;3.40;;;1.23;;
82244;SDS011;71849;50.096;14.458;2023-10-08T08:23:00;2.63;;;1.02;;
82244;SDS011;71849;50.096;14.458;2023-10-08T08:25:35;4.47;;;1.60;;
82244;SDS011;71849;50.096;14.458;2023-10-08T08:28:11;10.15;;;4.22;;
82244;SDS011;71849;50.096;14.458;2023-10-08T08:30:42;3.40;;;1.05;;
82244;SDS011;71849;50.096;14.458;2023-10-08T08:33:13;1.33;;;0.80;;
82244;SDS011;71849;50.096;14.458;2023-10-08T08:35:47;3.22;;;0.90;;
82244;SDS011;71849;50.096;14.458;2023-10-08T08:38:13;3.95;;;1.10;;
82244;SDS011;71849;50.096;14.458;2023-10-08T08:40:38;3.67;;;1.30;;
82244;SDS011;71849;50.096;14.458;2023-10-08T08:43:07;3.05;;;1.10;;
82244;SDS011;71849;50.096;14.458;2023-10-08T08:45:37;1.83;;;0.70;;
82244;SDS011;71849;50.096;14.458;2023-10-08T08:48:05;1.15;;;0.65;;
82244;SDS011;71849;50.096;14.458;2023-10-08T08:50:34;5.60;;;1.20;;
82244;SDS011;71849;50.096;14.458;2023-10-08T08:53:03;4.45;;;1.02;;
82244;SDS011;71849;50.096;14.458;2023-10-08T08:55:29;4.00;;;1.10;;
82244;SDS011;71849;50.096;14.458;2023-10-08T08:58:01;4.90;;;1.02;;
82244;SDS011;71849;50.096;14.458;2023-10-08T09:00:29;4.22;;;1.10;;
82244;SDS011;71849;50.096;14.458;2023-10-08T09:02:55;3.70;;;0.95;;
82244;SDS011;71849;50.096;14.458;2023-10-08T09:05:21;5.15;;;1.42;;
82244;SDS011;71849;50.096;14.458;2023-10-08T09:08:00;3.05;;;0.93;;
82244;SDS011;71849;50.096;14.458;2023-10-08T09:10:34;3.30;;;1.20;;
82244;SDS011;71849;50.096;14.458;2023-10-08T09:13:18;3.85;;;1.08;;
82244;SDS011;71849;50.096;14.458;2023-10-08T09:15:46;3.92;;;1.30;;
82244;SDS011;71849;50.096;14.458;2023-10-08T09:18:12;4.32;;;1.10;;
82244;SDS011;71849;50.096;14.458;2023-10-08T09:20:39;3.03;;;0.98;;
82244;SDS011;71849;50.096;14.458;2023-10-08T09:25:43;2.75;;;0.85;;
82244;SDS011;71849;50.096;14.458;2023-10-08T09:28:10;6.75;;;1.35;;
82244;SDS011;71849;50.096;14.458;2023-10-08T09:30:39;3.25;;;1.00;;
82244;SDS011;71849;50.096;14.458;2023-10-08T09:33:06;4.47;;;1.15;;
82244;SDS011;71849;50.096;14.458;2023-10-08T09:35:33;5.10;;;1.20;;
82244;SDS011;71849;50.096;14.458;2023-10-08T09:38:05;2.80;;;1.05;;
82244;SDS011;71849;50.096;14.458;2023-10-08T09:40:40;5.07;;;1.77;;
82244;SDS011;71849;50.096;14.458;2023-10-08T09:43:11;2.28;;;1.00;;
82244;SDS011;71849;50.096;14.458;2023-10-08T09:45:43;5.22;;;1.20;;
82244;SDS011;71849;50.096;14.458;2023-10-08T09:48:12;4.22;;;0.93;;
82244;SDS011;71849;50.096;14.458;2023-10-08T09:50:41;3.97;;;1.10;;
82244;SDS011;71849;50.096;14.458;2023-10-08T09:53:08;4.75;;;1.40;;
82244;SDS011;71849;50.096;14.458;2023-10-08T09:55:54;2.33;;;0.82;;
82244;SDS011;71849;50.096;14.458;2023-10-08T09:58:27;5.70;;;1.10;;
82244;SDS011;71849;50.096;14.458;2023-10-08T10:00:54;6.68;;;2.45;;
82244;SDS011;71849;50.096;14.458;2023-10-08T10:03:22;8.90;;;4.90;;
82244;SDS011;71849;50.096;14.458;2023-10-08T10:05:50;3.92;;;1.40;;
82244;SDS011;71849;50.096;14.458;2023-10-08T10:08:16;3.83;;;1.20;;
82244;SDS011;71849;50.096;14.458;2023-10-08T10:10:42;5.07;;;1.60;;
82244;SDS011;71849;50.096;14.458;2023-10-08T10:13:14;5.45;;;1.80;;
82244;SDS011;71849;50.096;14.458;2023-10-08T10:15:49;3.60;;;1.25;;
82244;SDS011;71849;50.096;14.458;2023-10-08T10:18:16;4.80;;;1.23;;
82244;SDS011;71849;50.096;14.458;2023-10-08T10:31:53;4.57;;;1.33;;
82244;SDS011;71849;50.096;14.458;2023-10-08T10:34:20;4.88;;;1.38;;
82244;SDS011;71849;50.096;14.458;2023-10-08T10:36:50;4.00;;;1.42;;
82244;SDS011;71849;50.096;14.458;2023-10-08T10:39:21;5.47;;;1.65;;
82244;SDS011;71849;50.096;14.458;2023-10-08T10:41:58;4.55;;;1.55;;
82244;SDS011;71849;50.096;14.458;2023-10-08T10:44:31;5.43;;;1.65;;
82244;SDS011;71849;50.096;14.458;2023-10-08T10:46:58;5.95;;;1.73;;
82244;SDS011;71849;50.096;14.458;2023-10-08T10:49:43;5.60;;;1.70;;
82244;SDS011;71849;50.096;14.458;2023-10-08T10:52:23;4.32;;;1.42;;
82244;SDS011;71849;50.096;14.458;2023-10-08T10:55:08;5.63;;;1.50;;
82244;SDS011;71849;50.096;14.458;2023-10-08T10:57:41;6.05;;;1.48;;
82244;SDS011;71849;50.096;14.458;2023-10-08T11:00:08;5.25;;;1.58;;
82244;SDS011;71849;50.096;14.458;2023-10-08T11:03:03;6.15;;;1.83;;
82244;SDS011;71849;50.096;14.458;2023-10-08T11:05:35;5.70;;;1.85;;
82244;SDS011;71849;50.096;14.458;2023-10-08T11:08:07;6.90;;;1.80;;
82244;SDS011;71849;50.096;14.458;2023-10-08T11:10:34;10.23;;;3.80;;
82244;SDS011;71849;50.096;14.458;2023-10-08T11:13:08;7.55;;;2.08;;
82244;SDS011;71849;50.096;14.458;2023-10-08T11:15:40;6.88;;;2.05;;
82244;SDS011;71849;50.096;14.458;2023-10-08T11:18:08;6.07;;;2.08;;
82244;SDS011;71849;50.096;14.458;2023-10-08T11:20:35;6.32;;;1.90;;
82244;SDS011;71849;50.096;14.458;2023-10-08T11:23:08;5.05;;;1.90;;
82244;SDS011;71849;50.096;14.458;2023-10-08T11:26:04;7.25;;;3.03;;
82244;SDS011;71849;50.096;14.458;2023-10-08T11:28:33;6.57;;;2.38;;
82244;SDS011;71849;50.096;14.458;2023-10-08T11:31:00;6.85;;;2.13;;
82244;SDS011;71849;50.096;14.458;2023-10-08T11:33:40;7.97;;;2.45;;
82244;SDS011;71849;50.096;14.458;2023-10-08T11:36:08;5.93;;;1.83;;
82244;SDS011;71849;50.096;14.458;2023-10-08T11:38:46;6.32;;;1.90;;
82244;SDS011;71849;50.096;14.458;2023-10-08T11:41:15;4.88;;;2.03;;
82244;SDS011;71849;50.096;14.458;2023-10-08T11:43:51;6.78;;;2.20;;
82244;SDS011;71849;50.096;14.458;2023-10-08T11:46:24;7.90;;;2.60;;
82244;SDS011;71849;50.096;14.458;2023-10-08T11:49:16;4.25;;;1.90;;
82244;SDS011;71849;50.096;14.458;2023-10-08T11:51:43;8.43;;;2.58;;
82244;SDS011;71849;50.096;14.458;2023-10-08T11:54:09;5.35;;;2.00;;
82244;SDS011;71849;50.096;14.458;2023-10-08T11:56:37;7.53;;;1.70;;
82244;SDS011;71849;50.096;14.458;2023-10-08T11:59:03;8.90;;;1.90;;
82244;SDS011;71849;50.096;14.458;2023-10-08T12:01:36;3.53;;;1.50;;
82244;SDS011;71849;50.096;14.458;2023-10-08T12:04:03;6.72;;;1.77;;
82244;SDS011;71849;50.096;14.458;2023-10-08T12:06:29;5.63;;;1.58;;
82244;SDS011;71849;50.096;14.458;2023-10-08T12:08:56;5.28;;;1.65;;
82244;SDS011;71849;50.096;14.458;2023-10-08T12:11:24;6.78;;;2.03;;
82244;SDS011;71849;50.096;14.458;2023-10-08T12:13:59;5.93;;;2.00;;
82244;SDS011;71849;50.096;14.458;2023-10-08T12:16:25;6.03;;;1.88;;
82244;SDS011;71849;50.096;14.458;2023-10-08T12:18:54;7.47;;;1.85;;
82244;SDS011;71849;50.096;14.458;2023-10-08T12:21:27;5.35;;;1.65;;
82244;SDS011;71849;50.096;14.458;2023-10-08T12:23:59;7.80;;;2.13;;
82244;SDS011;71849;50.096;14.458;2023-10-08T12:26:26;5.32;;;1.90;;
82244;SDS011;71849;50.096;14.458;2023-10-08T12:28:52;11.43;;;7.03;;
82244;SDS011;71849;50.096;14.458;2023-10-08T12:31:19;5.85;;;1.95;;
82244;SDS011;71849;50.096;14.458;2023-10-08T12:33:48;5.38;;;2.13;;
82244;SDS011;71849;50.096;14.458;2023-10-08T12:36:19;5.35;;;1.70;;
82244;SDS011;71849;50.096;14.458;2023-10-08T12:38:48;7.30;;;2.03;;
82244;SDS011;71849;50.096;14.458;2023-10-08T12:41:14;5.00;;;1.90;;
82244;SDS011;71849;50.096;14.458;2023-10-08T12:43:40;6.57;;;2.05;;
82244;SDS011;71849;50.096;14.458;2023-10-08T12:46:17;5.65;;;1.80;;
82244;SDS011;71849;50.096;14.458;2023-10-08T12:48:47;6.05;;;1.90;;
82244;SDS011;71849;50.096;14.458;2023-10-08T12:51:17;5.78;;;1.80;;
82244;SDS011;71849;50.096;14.458;2023-10-08T12:53:42;5.30;;;1.88;;
82244;SDS011;71849;50.096;14.458;2023-10-08T12:56:15;5.07;;;1.77;;
82244;SDS011;71849;50.096;14.458;2023-10-08T12:58:42;6.25;;;2.03;;
82244;SDS011;71849;50.096;14.458;2023-10-08T13:01:18;7.53;;;1.88;;
82244;SDS011;71849;50.096;14.458;2023-10-08T13:03:47;5.45;;;1.70;;
82244;SDS011;71849;50.096;14.458;2023-10-08T13:06:13;5.63;;;1.90;;
82244;SDS011;71849;50.096;14.458;2023-10-08T13:08:56;5.13;;;2.05;;
82244;SDS011;71849;50.096;14.458;2023-10-08T13:11:23;8.40;;;4.03;;
82244;SDS011;71849;50.096;14.458;2023-10-08T13:16:15;4.10;;;1.65;;
82244;SDS011;71849;50.096;14.458;2023-10-08T13:18:41;5.13;;;1.67;;
82244;SDS011;71849;50.096;14.458;2023-10-08T13:21:08;4.55;;;1.60;;
82244;SDS011;71849;50.096;14.458;2023-10-08T13:23:36;4.70;;;1.50;;
82244;SDS011;71849;50.096;14.458;2023-10-08T13:26:02;4.18;;;1.45;;
82244;SDS011;71849;50.096;14.458;2023-10-08T13:30:59;5.05;;;1.58;;
82244;SDS011;71849;50.096;14.458;2023-10-08T13:33:31;6.57;;;1.35;;
82244;SDS011;71849;50.096;14.458;2023-10-08T13:35:57;5.97;;;1.40;;
82244;SDS011;71849;50.096;14.458;2023-10-08T13:38:22;3.85;;;1.27;;
82244;SDS011;71849;50.096;14.458;2023-10-08T13:40:51;4.75;;;1.27;;
82244;SDS011;71849;50.096;14.458;2023-10-08T13:43:33;4.45;;;1.50;;
82244;SDS011;71849;50.096;14.458;2023-10-08T13:46:05;5.90;;;1.50;;
82244;SDS011;71849;50.096;14.458;2023-10-08T13:48:37;8.48;;;2.25;;
82244;SDS011;71849;50.096;14.458;2023-10-08T13:51:03;6.40;;;1.65;;
82244;SDS011;71849;50.096;14.458;2023-10-08T13:53:32;10.70;;;1.80;;
82244;SDS011;71849;50.096;14.458;2023-10-08T13:55:58;4.10;;;1.38;;
82244;SDS011;71849;50.096;14.458;2023-10-08T13:58:29;5.30;;;1.60;;
82244;SDS011;71849;50.096;14.458;2023-10-08T14:01:05;4.88;;;1.63;;
82244;SDS011;71849;50.096;14.458;2023-10-08T14:03:43;5.25;;;1.33;;
82244;SDS011;71849;50.096;14.458;2023-10-08T14:06:10;5.95;;;1.38;;
82244;SDS011;71849;50.096;14.458;2023-10-08T14:08:35;3.45;;;1.23;;
82244;SDS011;71849;50.096;14.458;2023-10-08T14:11:01;4.45;;;1.45;;
82244;SDS011;71849;50.096;14.458;2023-10-08T14:13:30;6.38;;;1.33;;
82244;SDS011;71849;50.096;14.458;2023-10-08T14:16:00;4.05;;;1.30;;
82244;SDS011;71849;50.096;14.458;2023-10-08T14:18:33;4.95;;;1.60;;
82244;SDS011;71849;50.096;14.458;2023-10-08T14:21:09;4.60;;;1.50;;
82244;SDS011;71849;50.096;14.458;2023-10-08T14:23:38;6.30;;;1.80;;
82244;SDS011;71849;50.096;14.458;2023-10-08T14:26:07;8.07;;;1.77;;
82244;SDS011;71849;50.096;14.458;2023-10-08T14:31:18;6.03;;;1.42;;
82244;SDS011;71849;50.096;14.458;2023-10-08T14:33:47;5.10;;;1.60;;
82244;SDS011;71849;50.096;14.458;2023-10-08T14:36:46;7.22;;;1.70;;
82244;SDS011;71849;50.096;14.458;2023-10-08T14:39:31;3.78;;;1.50;;
82244;SDS011;71849;50.096;14.458;2023-10-08T14:42:16;9.55;;;4.35;;
82244;SDS011;71849;50.096;14.458;2023-10-08T14:45:00;3.80;;;1.30;;
82244;SDS011;71849;50.096;14.458;2023-10-08T14:47:26;5.10;;;1.63;;
82244;SDS011;71849;50.096;14.458;2023-10-08T14:49:51;4.38;;;1.92;;
82244;SDS011;71849;50.096;14.458;2023-10-08T14:52:17;5.07;;;1.60;;
82244;SDS011;71849;50.096;14.458;2023-10-08T14:54:43;4.68;;;1.80;;
82244;SDS011;71849;50.096;14.458;2023-10-08T14:57:10;5.20;;;1.55;;
82244;SDS011;71849;50.096;14.458;2023-10-08T14:59:39;5.10;;;1.40;;
82244;SDS011;71849;50.096;14.458;2023-10-08T15:02:05;4.55;;;1.73;;
82244;SDS011;71849;50.096;14.458;2023-10-08T15:04:32;3.58;;;1.33;;
82244;SDS011;71849;50.096;14.458;2023-10-08T15:07:00;5.13;;;1.75;;
82244;SDS011;71849;50.096;14.458;2023-10-08T15:09:26;3.72;;;1.55;;
82244;SDS011;71849;50.096;14.458;2023-10-08T15:11:52;4.75;;;1.40;;
82244;SDS011;71849;50.096;14.458;2023-10-08T15:14:21;4.07;;;1.38;;
82244;SDS011;71849;50.096;14.458;2023-10-08T15:16:50;3.72;;;1.35;;
82244;SDS011;71849;50.096;14.458;2023-10-08T15:19:19;4.18;;;1.25;;
82244;SDS011;71849;50.096;14.458;2023-10-08T15:21:46;4.80;;;1.27;;
82244;SDS011;71849;50.096;14.458;2023-10-08T15:24:15;4.88;;;1.45;;
82244;SDS011;71849;50.096;14.458;2023-10-08T15:26:50;4.55;;;1.40;;
82244;SDS011;71849;50.096;14.458;2023-10-08T15:29:26;7.03;;;1.50;;
82244;SDS011;71849;50.096;14.458;2023-10-08T15:31:52;4.38;;;1.20;;
82244;SDS011;71849;50.096;14.458;2023-10-08T15:34:19;5.40;;;1.45;;
82244;SDS011;71849;50.096;14.458;2023-10-08T15:36:45;3.92;;;1.40;;
82244;SDS011;71849;50.096;14.458;2023-10-08T15:39:11;4.45;;;1.80;;